Time;durP1;ratioP1;P1;durP2;ratioP2;P2;SDS_P1;SDS_P2;PMS_P1;PMS_P2;Temp;Humidity;BMP_temperature;BMP_pressure;BME280_temperature;BME280_humidity;BME280_pressure;Samples;Min_cycle;Max_cycle;Signal;HPM_P1;HPM_P2
2024/03/20 00:00:43;;;;;;;0.10;0.10;;;;;;;5.45;46.10;101674.97;4951107;29;20486;-82
2024/03/20 00:03:09;;;;;;;0.20;0.20;;;;;;;5.52;46.25;101683.47;4934934;29;20028;-81
2024/03/20 00:05:34;;;;;;;0.20;0.20;;;;;;;5.23;46.20;101655.53;4934934;28;20414;-82
2024/03/20 00:08:00;;;;;;;0.10;0.10;;;;;;;5.45;47.06;101691.22;4934960;28;20063;-81
2024/03/20 00:10:26;;;;;;;0.20;0.20;;;;;;;5.34;46.70;101675.09;4935004;29;20493;-81
2024/03/20 00:12:53;;;;;;;0.20;0.20;;;;;;;5.50;47.06;101700.56;4934482;29;20035;-81
2024/03/20 00:15:19;;;;;;;0.20;0.20;;;;;;;5.52;47.10;101697.13;4933756;29;20040;-81
2024/03/20 00:17:45;;;;;;;0.20;0.20;;;;;;;5.63;47.26;101699.59;4935133;29;20102;-81
2024/03/20 00:20:11;;;;;;;0.10;0.10;;;;;;;5.61;46.57;101688.50;4950449;29;20059;-81
2024/03/20 00:22:37;;;;;;;0.20;0.20;;;;;;;5.70;46.65;101706.31;4934813;29;20114;-81
2024/03/20 00:25:03;;;;;;;0.20;0.20;;;;;;;5.59;46.62;101685.06;4918700;29;20027;-82
2024/03/20 00:27:29;;;;;;;0.20;0.20;;;;;;;5.55;46.47;101706.50;4934342;29;20024;-81
2024/03/20 00:29:54;;;;;;;0.20;0.20;;;;;;;5.25;47.06;101685.44;4950555;29;20110;-81
2024/03/20 00:32:20;;;;;;;0.10;0.10;;;;;;;5.35;47.07;101696.47;4934543;29;20655;-81
2024/03/20 00:34:45;;;;;;;0.17;0.17;;;;;;;5.18;47.67;101694.06;4934517;29;20031;-81
2024/03/20 00:37:11;;;;;;;0.20;0.20;;;;;;;5.26;47.47;101697.41;4934444;29;20910;-81
2024/03/20 00:39:37;;;;;;;0.10;0.10;;;;;;;5.10;47.65;101695.84;4918501;29;20031;-81
2024/03/20 00:42:04;;;;;;;0.20;0.20;;;;;;;5.11;48.43;101692.41;4949924;29;20023;-81
2024/03/20 00:44:30;;;;;;;0.20;0.20;;;;;;;5.06;48.01;101683.91;4918530;29;20031;-81
2024/03/20 00:46:55;;;;;;;0.10;0.10;;;;;;;4.91;48.24;101664.38;4934120;29;20031;-81
2024/03/20 00:49:21;;;;;;;0.20;0.20;;;;;;;5.07;48.21;101680.47;4934300;29;20035;-81
2024/03/20 00:51:46;;;;;;;0.20;0.20;;;;;;;5.07;47.82;101670.22;4934301;29;20043;-82
2024/03/20 00:54:13;;;;;;;0.20;0.20;;;;;;;5.12;48.13;101666.75;4935373;29;20533;-81
2024/03/20 00:56:39;;;;;;;0.20;0.20;;;;;;;5.01;48.38;101677.97;4934174;29;20031;-81
2024/03/20 00:59:05;;;;;;;0.20;0.20;;;;;;;5.13;47.80;101685.56;4933765;29;20517;-81
2024/03/20 01:01:30;;;;;;;0.20;0.20;;;;;;;5.09;48.13;101663.34;4934075;29;20099;-81
2024/03/20 01:03:56;;;;;;;0.20;0.20;;;;;;;4.88;48.68;101677.22;4934067;29;20028;-81
2024/03/20 01:06:21;;;;;;;0.10;0.10;;;;;;;4.87;48.12;101655.03;4933961;29;20494;-81
2024/03/20 01:08:47;;;;;;;0.20;0.20;;;;;;;4.90;48.29;101676.34;4949775;29;20079;-81
2024/03/20 01:11:12;;;;;;;0.20;0.20;;;;;;;4.88;48.65;101679.78;4933399;29;20042;-81
2024/03/20 01:13:38;;;;;;;0.10;0.10;;;;;;;4.75;48.83;101658.56;4949760;29;20413;-81
2024/03/20 01:16:04;;;;;;;0.20;0.20;;;;;;;4.80;48.65;101669.59;4933445;29;20048;-81
2024/03/20 01:18:30;;;;;;;0.10;0.10;;;;;;;4.61;48.90;101648.38;4933473;29;20031;-81
2024/03/20 01:20:55;;;;;;;0.20;0.20;;;;;;;4.68;49.11;101656.88;4917777;29;20034;-81
2024/03/20 01:23:21;;;;;;;0.20;0.20;;;;;;;4.72;49.25;101678.22;4933715;29;20419;-81
2024/03/20 01:25:46;;;;;;;0.20;0.20;;;;;;;4.66;49.34;101668.03;4916785;29;20071;-81
2024/03/20 01:28:12;;;;;;;0.10;0.10;;;;;;;4.67;49.31;101665.44;4949529;29;20134;-81
2024/03/20 01:30:37;;;;;;;0.10;0.10;;;;;;;4.70;49.78;101670.53;4933492;29;20027;-81
2024/03/20 01:33:03;;;;;;;0.20;0.20;;;;;;;4.74;49.66;101672.22;4933721;29;20095;-81
2024/03/20 01:35:29;;;;;;;0.10;0.10;;;;;;;4.71;49.49;101663.69;4949313;29;20038;-81
2024/03/20 01:37:54;;;;;;;0.10;0.10;;;;;;;4.67;49.60;101670.56;4933355;29;20035;-81
2024/03/20 01:40:20;;;;;;;0.20;0.20;;;;;;;4.60;49.91;101638.16;4933112;29;20035;-81
2024/03/20 01:42:45;;;;;;;0.20;0.20;;;;;;;4.76;49.52;101660.25;4933263;29;20038;-81
2024/03/20 01:45:20;;;;;;;0.20;0.20;;;;;;;4.74;49.86;101661.97;4933141;29;20039;-81
2024/03/20 01:47:46;;;;;;;0.10;0.10;;;;;;;4.67;49.26;101654.34;4933408;29;20032;-81
2024/03/20 01:50:12;;;;;;;0.10;0.10;;;;;;;4.61;50.22;101656.06;4933158;29;20098;-81
2024/03/20 01:53:07;;;;;;;0.20;0.20;;;;;;;4.54;50.13;101651.03;4932901;29;20094;-81
2024/03/20 01:55:33;;;;;;;0.20;0.20;;;;;;;4.50;50.11;101631.41;4932391;29;20126;-81
2024/03/20 01:57:59;;;;;;;0.20;0.20;;;;;;;4.63;49.60;101648.41;4916717;29;20088;-82
2024/03/20 02:00:27;;;;;;;0.20;0.20;;;;;;;4.65;49.79;101648.38;4948729;29;20067;-81
2024/03/20 02:02:59;;;;;;;0.20;0.20;;;;;;;4.33;50.51;101613.63;4917208;29;20105;-81
2024/03/20 02:05:25;;;;;;;0.20;0.20;;;;;;;4.36;50.15;101628.13;4932864;29;20114;-81
2024/03/20 02:07:53;;;;;;;0.10;0.10;;;;;;;4.45;50.67;101653.66;4932311;29;20038;-81
2024/03/20 02:10:19;;;;;;;0.20;0.20;;;;;;;4.57;50.02;101653.56;4932979;29;20127;-81
2024/03/20 02:12:44;;;;;;;0.10;0.10;;;;;;;4.54;50.54;101657.00;4916917;29;20433;-81
2024/03/20 02:15:12;;;;;;;0.20;0.20;;;;;;;4.49;50.70;101660.47;4932211;29;20249;-81
2024/03/20 02:17:39;;;;;;;0.20;0.20;;;;;;;4.41;50.65;101634.88;4932731;29;20043;-81
2024/03/20 02:20:06;;;;;;;0.20;0.20;;;;;;;4.50;50.21;101651.91;4932460;29;20035;-81
2024/03/20 02:22:44;;;;;;;0.20;0.20;;;;;;;4.50;50.79;101662.16;4932338;29;20063;-81
2024/03/20 02:25:10;;;;;;;0.20;0.20;;;;;;;4.30;50.31;101650.34;4948333;29;20063;-81
2024/03/20 02:27:36;;;;;;;0.10;0.10;;;;;;;4.38;51.00;101668.22;4916704;29;20063;-81
2024/03/20 02:30:09;;;;;;;0.10;0.10;;;;;;;4.20;50.64;101658.09;4932248;29;20541;-81
2024/03/20 02:32:38;;;;;;;0.20;0.20;;;;;;;4.34;51.18;101670.81;4932462;29;20512;-81
2024/03/20 02:35:04;;;;;;;0.20;0.20;;;;;;;4.28;51.49;101662.31;4932270;29;20095;-81
2024/03/20 02:37:29;;;;;;;0.20;0.20;;;;;;;4.36;50.93;101661.41;4931618;29;20036;-81
2024/03/20 02:39:55;;;;;;;0.20;0.20;;;;;;;4.17;51.36;101647.88;4932075;28;20066;-80
2024/03/20 02:42:22;;;;;;;0.20;0.20;;;;;;;4.21;51.58;101658.06;4932311;29;20032;-80
2024/03/20 02:44:49;;;;;;;0.20;0.20;;;;;;;4.35;50.97;101657.16;4933462;29;20028;-81
2024/03/20 02:47:14;;;;;;;0.10;0.10;;;;;;;4.41;50.89;101667.34;4932049;29;20079;-81
2024/03/20 02:49:40;;;;;;;0.20;0.20;;;;;;;4.26;51.47;101633.28;4932551;29;20027;-81
2024/03/20 02:52:05;;;;;;;0.20;0.20;;;;;;;4.31;50.83;101657.16;4931864;29;20043;-80
2024/03/20 02:54:31;;;;;;;0.20;0.20;;;;;;;4.48;51.51;101674.13;4932202;29;20066;-81
2024/03/20 02:56:56;;;;;;;0.20;0.20;;;;;;;4.41;50.95;101665.63;4932150;29;20553;-81
2024/03/20 02:59:22;;;;;;;0.20;0.20;;;;;;;4.39;51.22;101675.03;4932255;29;20031;-81
2024/03/20 03:01:47;;;;;;;0.20;0.20;;;;;;;4.38;51.17;101668.22;4931778;29;20031;-81
2024/03/20 03:04:13;;;;;;;0.10;0.10;;;;;;;4.43;50.92;101673.34;4932214;29;20036;-81
2024/03/20 03:06:38;;;;;;;0.10;0.10;;;;;;;4.34;51.30;101650.34;4947650;29;20032;-81
2024/03/20 03:09:08;;;;;;;0.20;0.20;;;;;;;4.47;51.07;101675.00;4932031;29;20038;-81
2024/03/20 03:11:35;;;;;;;0.20;0.20;;;;;;;4.39;51.64;101661.38;4931908;29;20514;-81
2024/03/20 03:14:01;;;;;;;0.20;0.20;;;;;;;4.53;51.29;101672.41;4932021;29;20075;-81
2024/03/20 03:16:26;;;;;;;0.20;0.20;;;;;;;4.66;51.31;101678.28;4947680;29;20055;-81
2024/03/20 03:18:52;;;;;;;0.20;0.20;;;;;;;4.69;50.89;101678.25;4931950;28;20028;-81
2024/03/20 03:21:17;;;;;;;0.20;0.20;;;;;;;4.75;51.08;101675.66;4931430;29;20502;-81
2024/03/20 03:23:43;;;;;;;0.20;0.20;;;;;;;4.75;51.25;101675.66;4931694;29;20106;-81
2024/03/20 03:26:09;;;;;;;0.10;0.10;;;;;;;4.69;51.02;101673.97;4947496;29;20036;-81
2024/03/20 03:28:34;;;;;;;0.10;0.10;;;;;;;4.66;51.58;101679.13;4931973;29;20058;-81
2024/03/20 03:31:00;;;;;;;0.20;0.20;;;;;;;4.60;51.26;101674.88;4932115;29;20031;-81
2024/03/20 03:33:26;;;;;;;0.20;0.20;;;;;;;4.68;51.49;101694.50;4931941;29;20032;-81
2024/03/20 03:35:52;;;;;;;0.15;0.15;;;;;;;4.66;51.55;101691.94;4931656;29;20034;-81
2024/03/20 03:38:18;;;;;;;0.20;0.20;;;;;;;4.63;51.52;101691.97;4931871;29;20078;-81
2024/03/20 03:40:43;;;;;;;0.20;0.20;;;;;;;4.49;51.77;101680.97;4931770;29;20031;-81
2024/03/20 03:43:09;;;;;;;0.10;0.10;;;;;;;4.43;51.87;101675.91;4915884;29;20117;-81
2024/03/20 03:45:34;;;;;;;0.10;0.10;;;;;;;4.47;51.38;101675.00;4931535;29;20031;-81
2024/03/20 03:48:01;;;;;;;0.20;0.20;;;;;;;4.59;52.44;101695.41;4915948;29;20122;-81
2024/03/20 03:50:28;;;;;;;0.10;0.10;;;;;;;4.55;51.83;101702.28;4918108;29;20079;-81
2024/03/20 03:52:53;;;;;;;0.10;0.10;;;;;;;4.54;52.23;101695.44;4934915;29;20032;-81
2024/03/20 03:55:19;;;;;;;0.20;0.20;;;;;;;4.50;51.67;101703.16;4935518;29;20028;-81
2024/03/20 03:57:44;;;;;;;0.20;0.20;;;;;;;4.54;51.83;101709.97;4935239;29;20044;-81
2024/03/20 04:00:11;;;;;;;0.10;0.10;;;;;;;4.42;52.40;101703.19;4934906;29;20035;-81
2024/03/20 04:02:37;;;;;;;0.10;0.10;;;;;;;4.39;52.78;101715.19;4919304;29;20036;-81
2024/03/20 04:05:04;;;;;;;0.10;0.10;;;;;;;4.37;52.39;101715.19;4950430;29;20055;-81
2024/03/20 04:07:30;;;;;;;0.20;0.20;;;;;;;4.21;52.85;101714.44;4936470;29;20102;-81
2024/03/20 04:09:56;;;;;;;0.10;0.10;;;;;;;4.12;53.52;101706.78;4934763;29;20027;-81
2024/03/20 04:12:21;;;;;;;0.20;0.20;;;;;;;4.26;53.20;101715.28;4919091;29;20027;-80
2024/03/20 04:14:47;;;;;;;0.20;0.20;;;;;;;4.17;53.32;101699.94;4934831;29;20478;-80
2024/03/20 04:17:12;;;;;;;0.20;0.20;;;;;;;4.21;53.77;101706.75;4934972;29;20087;-81
2024/03/20 04:19:38;;;;;;;0.10;0.10;;;;;;;4.23;53.59;101707.59;4934781;29;20027;-80
2024/03/20 04:22:03;;;;;;;0.20;0.20;;;;;;;4.23;53.60;101704.19;4950991;29;20031;-80
2024/03/20 04:24:29;;;;;;;0.10;0.10;;;;;;;4.23;53.59;101710.16;4934722;29;20031;-81
2024/03/20 04:26:55;;;;;;;0.10;0.10;;;;;;;4.24;53.78;101717.00;4950188;29;20035;-81
2024/03/20 04:29:20;;;;;;;0.20;0.20;;;;;;;4.13;53.79;101716.19;4934678;29;20051;-81
2024/03/20 04:31:46;;;;;;;0.10;0.10;;;;;;;4.26;54.24;101727.22;4934861;29;20032;-80
2024/03/20 04:34:12;;;;;;;0.10;0.10;;;;;;;4.20;54.00;101709.31;4949994;29;20178;-81
2024/03/20 04:36:37;;;;;;;0.10;0.10;;;;;;;4.31;54.05;101733.16;4934574;29;20486;-80
2024/03/20 04:39:06;;;;;;;0.17;0.17;;;;;;;4.40;53.62;101732.25;4934370;29;20067;-80
2024/03/20 04:41:32;;;;;;;0.10;0.10;;;;;;;4.27;54.21;101722.09;4935358;29;20080;-80
2024/03/20 04:43:58;;;;;;;0.20;0.20;;;;;;;4.36;54.13;101745.97;4918445;29;20028;-81
2024/03/20 04:46:23;;;;;;;0.20;0.20;;;;;;;4.39;54.00;101751.91;4933980;29;20031;-80
2024/03/20 04:48:49;;;;;;;0.20;0.20;;;;;;;4.45;54.24;101751.03;4933747;29;20506;-81
2024/03/20 04:51:15;;;;;;;0.20;0.20;;;;;;;4.53;53.51;101749.28;4934080;28;20043;-81
2024/03/20 04:53:40;;;;;;;0.15;0.15;;;;;;;4.34;54.09;101737.44;4934237;29;20518;-81
2024/03/20 04:56:06;;;;;;;0.20;0.20;;;;;;;4.34;53.75;101734.88;4934147;29;20055;-81
2024/03/20 04:58:31;;;;;;;0.15;0.15;;;;;;;4.52;54.00;101758.69;4933879;29;20051;-80
2024/03/20 05:00:57;;;;;;;0.20;0.20;;;;;;;4.48;54.04;101748.44;4948862;28;20070;-81
2024/03/20 05:03:23;;;;;;;0.20;0.20;;;;;;;4.55;53.66;101757.81;4949352;29;20559;-81
2024/03/20 05:05:48;;;;;;;0.20;0.20;;;;;;;4.57;53.73;101761.22;4934983;29;20531;-81
2024/03/20 05:08:14;;;;;;;0.10;0.10;;;;;;;4.55;54.04;101762.94;4949928;29;20063;-81
2024/03/20 05:10:39;;;;;;;0.17;0.17;;;;;;;4.56;53.57;101762.91;4935532;29;20072;-81
2024/03/20 05:13:05;;;;;;;0.20;0.20;;;;;;;4.58;54.29;101763.75;4952139;29;20051;-81
2024/03/20 05:15:30;;;;;;;0.20;0.20;;;;;;;4.71;53.69;101776.50;4922456;29;20063;-82
2024/03/20 05:17:56;;;;;;;0.20;0.20;;;;;;;4.61;53.13;101739.81;4916893;29;20082;-83
2024/03/20 05:20:21;;;;;;;0.20;0.20;;;;;;;4.65;53.62;101759.44;4928771;29;20032;-87
2024/03/20 05:22:47;;;;;;;0.20;0.20;;;;;;;4.54;53.84;101761.22;4921336;29;20176;-86
2024/03/20 05:25:13;;;;;;;0.15;0.15;;;;;;;4.70;53.97;101788.47;4932620;29;20027;-86
2024/03/20 05:27:38;;;;;;;0.20;0.20;;;;;;;4.79;53.73;101793.53;4933570;29;20122;-94
2024/03/20 05:30:05;;;;;;;0.20;0.20;;;;;;;4.75;53.86;101784.16;4933707;29;20535;-87
2024/03/20 05:32:30;;;;;;;0.10;0.10;;;;;;;4.83;53.79;101795.22;4921939;29;20398;-86
2024/03/20 05:34:56;;;;;;;0.10;0.10;;;;;;;4.92;53.98;101799.44;4931419;29;20055;-85
2024/03/20 05:37:21;;;;;;;0.20;0.20;;;;;;;5.07;54.13;101811.28;4916742;29;20115;-87
2024/03/20 05:39:47;;;;;;;0.20;0.20;;;;;;;5.09;54.51;101804.44;4933609;29;20038;-83
2024/03/20 05:42:12;;;;;;;0.20;0.20;;;;;;;5.20;53.86;101802.63;4930694;29;20031;-83
2024/03/20 05:44:38;;;;;;;0.20;0.20;;;;;;;5.25;53.96;101793.19;4932604;29;20075;-84
2024/03/20 05:47:04;;;;;;;0.20;0.20;;;;;;;5.38;53.54;101801.63;4931603;29;20079;-86
2024/03/20 05:49:29;;;;;;;0.10;0.10;;;;;;;5.40;53.66;101793.03;4932452;29;20611;-85
2024/03/20 05:51:55;;;;;;;0.10;0.10;;;;;;;5.51;53.34;101807.53;4946681;29;20506;-85
2024/03/20 05:54:21;;;;;;;0.10;0.10;;;;;;;5.58;53.26;101820.28;4933756;29;20074;-87
2024/03/20 05:56:46;;;;;;;0.20;0.20;;;;;;;5.64;53.20;101822.78;4928336;29;20036;-89
2024/03/20 05:59:13;;;;;;;0.20;0.20;;;;;;;5.78;53.84;101814.94;4930578;29;20511;-85
2024/03/20 06:01:38;;;;;;;0.20;0.20;;;;;;;5.89;52.53;101823.38;4913041;29;20032;-86
2024/03/20 06:04:06;;;;;;;0.20;0.20;;;;;;;5.93;52.87;101814.84;4927883;29;20042;-82
2024/03/20 06:06:33;;;;;;;0.10;0.10;;;;;;;5.93;52.75;101809.69;4915922;29;20035;-86
2024/03/20 06:08:58;;;;;;;0.20;0.20;;;;;;;6.22;53.01;101821.38;4929250;29;20040;-87
2024/03/20 06:11:24;;;;;;;0.20;0.20;;;;;;;6.33;52.41;101833.22;4930422;29;20110;-86
2024/03/20 06:13:50;;;;;;;0.20;0.20;;;;;;;6.28;52.75;101799.00;4931681;29;20071;-90
2024/03/20 06:16:16;;;;;;;0.20;0.20;;;;;;;6.54;51.58;101832.09;4930236;29;20142;-87
2024/03/20 06:18:41;;;;;;;0.10;0.10;;;;;;;6.68;51.73;101829.31;4915344;29;20032;-89
2024/03/20 06:21:09;;;;;;;0.10;0.10;;;;;;;6.85;51.33;101831.66;4928037;29;20119;-87
2024/03/20 06:23:34;;;;;;;0.20;0.20;;;;;;;6.95;51.38;101824.66;4911526;29;20507;-85
2024/03/20 06:26:00;;;;;;;0.20;0.20;;;;;;;7.02;50.63;101821.13;4946965;29;20106;-89
2024/03/20 06:28:26;;;;;;;0.20;0.20;;;;;;;7.24;50.43;101834.50;4931810;29;20558;-85
2024/03/20 06:30:53;;;;;;;0.10;0.10;;;;;;;7.30;50.36;101837.00;4915776;29;20035;-90
2024/03/20 06:33:19;;;;;;;0.20;0.20;;;;;;;7.32;49.65;101824.94;4928317;29;20063;-85
2024/03/20 06:35:47;;;;;;;0.20;0.20;;;;;;;7.54;50.08;101836.59;4919920;29;20020;-86
2024/03/20 06:38:14;;;;;;;0.10;0.10;;;;;;;7.59;48.80;101824.50;4915850;29;20062;-84
2024/03/20 06:40:40;;;;;;;0.10;0.10;;;;;;;7.74;49.16;101829.34;4930591;29;20108;-82
2024/03/20 06:43:06;;;;;;;0.20;0.20;;;;;;;7.99;48.20;101852.09;4911664;29;20071;-87
2024/03/20 06:45:35;;;;;;;0.20;0.20;;;;;;;8.15;48.53;101852.66;4899060;29;20039;-85
2024/03/20 06:48:01;;;;;;;0.20;0.20;;;;;;;8.30;48.07;101845.47;4929583;29;20043;-84
2024/03/20 06:50:29;;;;;;;0.10;0.10;;;;;;;8.46;47.98;101855.53;4929902;29;20032;-83
2024/03/20 06:52:57;;;;;;;0.20;0.20;;;;;;;8.42;48.36;101838.41;4931036;29;20027;-83
2024/03/20 06:55:23;;;;;;;0.20;0.20;;;;;;;8.52;47.79;101843.31;4931270;29;20071;-87
2024/03/20 06:57:49;;;;;;;0.20;0.20;;;;;;;8.80;47.16;101863.38;4931154;29;20043;-91
2024/03/20 07:00:18;;;;;;;0.20;0.20;;;;;;;8.96;46.94;101859.59;4901120;29;20068;-85
2024/03/20 07:02:44;;;;;;;0.20;0.20;;;;;;;9.05;45.75;101861.97;4929835;29;20047;-87
2024/03/20 07:05:12;;;;;;;0.20;0.20;;;;;;;9.06;45.37;101867.97;4914567;29;20038;-82
2024/03/20 07:07:38;;;;;;;0.20;0.20;;;;;;;9.08;44.43;101858.47;4929778;29;20118;-84
2024/03/20 07:10:04;;;;;;;0.20;0.20;;;;;;;9.21;44.50;101877.94;4899608;29;20675;-84
2024/03/20 07:12:30;;;;;;;0.20;0.20;;;;;;;9.25;44.91;101873.56;4917185;29;20042;-80
2024/03/20 07:14:56;;;;;;;0.20;0.20;;;;;;;9.26;45.89;101865.78;4929854;29;20031;-91
2024/03/20 07:17:22;;;;;;;0.20;0.20;;;;;;;9.24;44.94;101870.09;4931755;29;21283;-81
2024/03/20 07:19:52;;;;;;;0.20;0.20;;;;;;;9.28;45.46;101863.16;4930793;29;20482;-82
2024/03/20 07:22:17;;;;;;;0.20;0.20;;;;;;;9.51;44.13;101870.34;4946275;29;20398;-87
2024/03/20 07:24:43;;;;;;;0.20;0.20;;;;;;;9.60;44.23;101870.97;4933647;29;20042;-80
2024/03/20 07:27:09;;;;;;;0.20;0.20;;;;;;;9.74;44.00;101862.88;4953586;28;20548;-88
2024/03/20 07:29:34;;;;;;;0.15;0.15;;;;;;;9.78;43.93;101861.91;4935549;29;20020;-88
2024/03/20 07:32:00;;;;;;;0.20;0.20;;;;;;;10.03;43.17;101891.41;4935764;29;20051;-82
2024/03/20 07:34:25;;;;;;;0.20;0.20;;;;;;;9.91;43.60;101876.19;4930171;29;20577;-82
2024/03/20 07:36:51;;;;;;;0.20;0.20;;;;;;;10.00;43.02;101882.84;4918797;29;20035;-89
2024/03/20 07:39:19;;;;;;;0.20;0.20;;;;;;;9.88;42.45;101865.94;4919992;29;20055;-86
2024/03/20 07:41:45;;;;;;;0.20;0.20;;;;;;;10.04;42.38;101875.00;4934415;29;20042;-80
2024/03/20 07:44:11;;;;;;;0.20;0.20;;;;;;;9.92;42.81;101857.19;4936335;29;20032;-82
2024/03/20 07:46:36;;;;;;;0.20;0.20;;;;;;;9.98;42.51;101831.19;4950168;29;20526;-86
2024/03/20 07:49:02;;;;;;;0.20;0.20;;;;;;;10.26;42.11;101874.44;4934256;29;20375;-86
2024/03/20 07:51:28;;;;;;;0.20;0.20;;;;;;;10.13;41.76;101849.75;4917699;29;20034;-86
2024/03/20 07:53:55;;;;;;;0.20;0.20;;;;;;;10.39;41.84;101874.94;4934011;29;20051;-84
2024/03/20 07:56:20;;;;;;;0.20;0.20;;;;;;;10.52;42.29;101882.31;4915919;29;20114;-84
2024/03/20 07:58:47;;;;;;;0.20;0.20;;;;;;;10.53;42.45;101860.72;4916112;29;20122;-85
2024/03/20 08:01:13;;;;;;;0.20;0.20;;;;;;;10.69;42.00;101863.69;4946772;29;20044;-84
2024/03/20 08:03:48;;;;;;;0.20;0.20;;;;;;;10.80;40.81;101860.78;4917572;29;20047;-91
2024/03/20 08:06:14;;;;;;;0.20;0.20;;;;;;;10.95;41.56;101862.91;4939530;29;20039;-85
2024/03/20 08:08:40;;;;;;;0.20;0.20;;;;;;;10.78;40.63;101849.63;4931769;29;20422;-86
2024/03/20 08:11:05;;;;;;;0.20;0.20;;;;;;;11.04;40.64;101852.28;4932410;29;20107;-87
2024/03/20 08:13:31;;;;;;;0.20;0.20;;;;;;;11.23;40.76;101872.41;4933393;29;20483;-88
2024/03/20 08:15:56;;;;;;;0.20;0.20;;;;;;;11.15;40.51;101870.91;4932871;29;20047;-87
2024/03/20 08:18:23;;;;;;;0.20;0.20;;;;;;;11.18;40.27;101865.63;4921016;29;20180;-90
2024/03/20 08:20:48;;;;;;;0.20;0.20;;;;;;;11.30;40.60;101856.59;4930072;29;20035;-90
2024/03/20 08:23:14;;;;;;;0.20;0.20;;;;;;;11.45;40.31;101868.22;4913546;29;20194;-86
2024/03/20 08:25:39;;;;;;;0.20;0.20;;;;;;;11.49;40.46;101855.09;4945840;29;20071;-90
2024/03/20 08:28:05;;;;;;;0.20;0.20;;;;;;;11.56;40.04;101853.16;4913548;29;20028;-83
2024/03/20 08:30:31;;;;;;;0.20;0.20;;;;;;;11.69;40.12;101863.97;4925934;29;20026;-82
2024/03/20 08:32:56;;;;;;;0.20;0.20;;;;;;;11.67;39.91;101838.09;4945248;28;20566;-84
2024/03/20 08:35:22;;;;;;;0.20;0.20;;;;;;;11.92;39.27;101871.84;4928912;29;20039;-84
2024/03/20 08:37:47;;;;;;;0.20;0.20;;;;;;;11.89;37.97;101852.94;4933786;29;20096;-83
2024/03/20 08:40:13;;;;;;;0.20;0.20;;;;;;;11.83;38.74;101853.16;4931708;29;20047;-84
2024/03/20 08:42:39;;;;;;;0.20;0.20;;;;;;;12.11;38.71;101856.50;4905117;29;20044;-84
2024/03/20 08:45:05;;;;;;;0.20;0.20;;;;;;;12.16;38.00;101857.16;4948284;29;20023;-90
2024/03/20 08:47:32;;;;;;;0.20;0.20;;;;;;;12.14;39.32;101869.34;4931943;29;20020;-85
2024/03/20 08:49:57;;;;;;;0.20;0.20;;;;;;;12.23;38.79;101848.25;4931187;29;20069;-86
2024/03/20 08:52:23;;;;;;;0.20;0.20;;;;;;;12.37;37.18;101862.47;4908135;29;20059;-85
2024/03/20 08:54:49;;;;;;;0.20;0.20;;;;;;;12.30;37.89;101839.34;4932854;29;20087;-83
2024/03/20 08:57:18;;;;;;;0.20;0.20;;;;;;;12.49;37.02;101854.25;4929561;29;20118;-90
2024/03/20 08:59:44;;;;;;;0.20;0.20;;;;;;;12.50;37.14;101851.59;4932688;29;20451;-84
2024/03/20 09:02:09;;;;;;;0.20;0.20;;;;;;;12.66;36.94;101851.84;4934756;29;20043;-86
2024/03/20 09:04:35;;;;;;;0.20;0.20;;;;;;;12.87;37.21;101850.16;4935526;29;20027;-92
2024/03/20 09:07:01;;;;;;;0.20;0.20;;;;;;;12.71;37.38;101844.75;4954651;28;20032;-93
2024/03/20 09:09:28;;;;;;;0.20;0.20;;;;;;;12.83;37.75;101844.25;4924518;29;20493;-90
2024/03/20 09:11:54;;;;;;;0.20;0.20;;;;;;;13.01;38.14;101839.25;4937181;28;20032;-91
2024/03/20 09:14:20;;;;;;;0.20;0.20;;;;;;;13.22;37.62;101829.78;4941245;29;20034;-83
2024/03/20 09:16:49;;;;;;;0.20;0.20;;;;;;;13.53;37.11;101839.75;4941071;29;20131;-90
2024/03/20 09:19:18;;;;;;;0.20;0.20;;;;;;;13.69;36.07;101841.66;4936072;28;20118;-90
2024/03/20 09:21:43;;;;;;;0.20;0.20;;;;;;;13.67;35.81;101848.69;4917635;29;20486;-88
2024/03/20 09:24:14;;;;;;;0.20;0.20;;;;;;;13.83;35.92;101850.59;4929870;29;20020;-93
2024/03/20 09:26:40;;;;;;;0.20;0.20;;;;;;;14.00;35.42;101842.91;4929742;29;20035;-87
2024/03/20 09:29:05;;;;;;;0.20;0.20;;;;;;;14.02;35.38;101835.88;4932641;29;20027;-88
2024/03/20 09:31:31;;;;;;;0.20;0.20;;;;;;;14.11;35.01;101834.63;4932606;29;20522;-83
2024/03/20 09:33:59;;;;;;;0.20;0.20;;;;;;;14.12;35.17;101816.34;4932087;29;20668;-85
2024/03/20 09:36:25;;;;;;;0.20;0.20;;;;;;;14.09;34.69;101839.06;4932924;29;20122;-82
2024/03/20 09:38:51;;;;;;;0.20;0.20;;;;;;;14.08;34.50;101833.03;4919923;29;20044;-83
2024/03/20 09:41:16;;;;;;;0.20;0.20;;;;;;;14.10;34.14;101823.38;4938265;29;20035;-85
2024/03/20 09:43:43;;;;;;;0.20;0.20;;;;;;;14.19;33.70;101824.72;4948604;29;20038;-83
2024/03/20 09:46:12;;;;;;;0.20;0.20;;;;;;;14.29;34.05;101829.47;4929395;29;20159;-88
2024/03/20 09:48:39;;;;;;;0.20;0.20;;;;;;;14.15;34.49;101795.38;4932425;29;20031;-87
2024/03/20 09:51:04;;;;;;;0.20;0.20;;;;;;;14.25;34.71;101825.28;4931877;29;20138;-87
2024/03/20 09:53:34;;;;;;;0.20;0.20;;;;;;;14.18;33.77;101820.44;4948475;29;20118;-85
2024/03/20 09:56:09;;;;;;;0.20;0.20;;;;;;;14.20;33.39;101826.44;4917166;29;20181;-90
2024/03/20 09:58:39;;;;;;;0.20;0.20;;;;;;;14.25;32.82;101817.47;4951936;28;20062;-93
2024/03/20 10:01:08;;;;;;;0.20;0.20;;;;;;;14.46;33.61;101807.06;4914220;29;20028;-87
2024/03/20 10:03:34;;;;;;;0.20;0.20;;;;;;;14.62;33.39;101813.22;4921024;29;20040;-90
2024/03/20 10:06:00;;;;;;;0.20;0.20;;;;;;;14.72;33.59;101806.66;4914448;29;20084;-82
2024/03/20 10:08:25;;;;;;;0.20;0.20;;;;;;;14.72;33.72;101775.41;4945514;29;20044;-82
2024/03/20 10:10:53;;;;;;;0.22;0.22;;;;;;;14.99;33.91;101812.31;4930360;29;20052;-94
2024/03/20 10:13:19;;;;;;;0.20;0.20;;;;;;;15.07;33.95;101804.97;4916185;29;20138;-91
2024/03/20 10:15:45;;;;;;;0.20;0.20;;;;;;;14.93;32.27;101805.63;4938984;29;20084;-89
2024/03/20 10:18:15;;;;;;;0.20;0.20;;;;;;;14.93;31.83;101803.03;4931122;29;20506;-85
2024/03/20 10:20:41;;;;;;;0.20;0.20;;;;;;;15.05;32.25;101806.81;4931439;29;20548;-83
2024/03/20 10:23:08;;;;;;;0.20;0.20;;;;;;;14.97;33.88;101767.25;4931583;29;20035;-84
2024/03/20 10:25:35;;;;;;;0.20;0.20;;;;;;;15.35;32.73;101806.22;4916461;29;20162;-84
2024/03/20 10:28:00;;;;;;;0.20;0.20;;;;;;;15.21;32.06;101794.69;4915925;29;20032;-85
2024/03/20 10:30:27;;;;;;;0.20;0.20;;;;;;;15.18;32.58;101787.03;4914093;29;20042;-86
2024/03/20 10:32:53;;;;;;;0.20;0.20;;;;;;;15.12;32.43;101787.31;4924373;29;20109;-85
2024/03/20 10:35:20;;;;;;;0.20;0.20;;;;;;;15.19;32.84;101783.50;4931756;29;20078;-90
2024/03/20 10:37:47;;;;;;;0.20;0.20;;;;;;;15.26;33.79;101783.22;4915237;29;20054;-86
2024/03/20 10:40:16;;;;;;;0.20;0.20;;;;;;;15.50;31.95;101789.78;4901257;29;20746;-88
2024/03/20 10:42:44;;;;;;;0.20;0.20;;;;;;;15.39;32.70;101790.31;4931869;29;20042;-85
2024/03/20 10:45:10;;;;;;;0.20;0.20;;;;;;;15.48;31.47;101770.75;4930373;29;20111;-82
2024/03/20 10:47:40;;;;;;;0.20;0.20;;;;;;;15.48;31.86;101757.72;4931197;29;20083;-83
2024/03/20 10:50:14;;;;;;;0.20;0.20;;;;;;;15.72;31.56;101766.91;4941657;29;20031;-84
2024/03/20 10:52:40;;;;;;;0.20;0.20;;;;;;;15.80;32.19;101763.91;4930912;29;20090;-83
2024/03/20 10:55:07;;;;;;;0.20;0.20;;;;;;;15.67;31.49;101753.28;4931719;29;20040;-84
2024/03/20 10:57:33;;;;;;;0.25;0.25;;;;;;;15.84;31.85;101760.22;4931432;29;20024;-84
2024/03/20 11:00:00;;;;;;;0.20;0.20;;;;;;;16.00;31.34;101762.84;4930857;29;20083;-84
2024/03/20 11:02:26;;;;;;;0.20;0.20;;;;;;;16.20;31.88;101767.84;4911291;29;20051;-89
2024/03/20 11:04:51;;;;;;;0.20;0.20;;;;;;;16.11;30.92;101767.47;4931224;29;20032;-90
2024/03/20 11:07:29;;;;;;;0.20;0.20;;;;;;;16.05;31.55;101766.06;4945726;29;20032;-88
2024/03/20 11:09:58;;;;;;;0.20;0.20;;;;;;;16.18;31.29;101763.63;4931937;29;20182;-81
2024/03/20 11:12:26;;;;;;;0.20;0.20;;;;;;;16.14;31.49;101752.53;4915627;29;20032;-85
2024/03/20 11:14:52;;;;;;;0.20;0.20;;;;;;;16.16;30.90;101744.59;4927124;29;20104;-91
2024/03/20 11:17:17;;;;;;;0.20;0.20;;;;;;;16.31;31.12;101736.75;4931069;29;20040;-90
2024/03/20 11:19:43;;;;;;;0.20;0.20;;;;;;;16.50;30.55;101735.72;4915129;29;20032;-87
2024/03/20 11:22:22;;;;;;;0.20;0.20;;;;;;;16.48;29.74;101751.50;4916509;29;20024;-93
2024/03/20 11:24:49;;;;;;;0.20;0.20;;;;;;;16.15;30.19;101733.31;4948079;29;20043;-82
2024/03/20 11:27:15;;;;;;;0.20;0.20;;;;;;;16.27;30.07;101735.25;4923284;29;20426;-82